createdAt,value
2022-08-25T00:00:20.032Z,27.63
2022-08-25T00:01:20.033Z,27.57
2022-08-25T00:02:20.103Z,27.60
2022-08-25T00:03:20.033Z,27.57
2022-08-25T00:04:20.034Z,27.60
2022-08-25T00:05:20.131Z,27.63
2022-08-25T00:06:20.043Z,27.59
2022-08-25T00:07:20.037Z,27.60
2022-08-25T00:08:20.038Z,27.62
2022-08-25T00:09:20.036Z,27.54
2022-08-25T00:10:20.038Z,27.55
2022-08-25T00:11:20.041Z,27.59
2022-08-25T00:12:20.040Z,27.60
2022-08-25T00:13:20.052Z,27.60
2022-08-25T00:14:20.041Z,27.59
2022-08-25T00:15:20.041Z,27.57
2022-08-25T00:16:20.118Z,27.57
2022-08-25T00:17:20.044Z,27.62
2022-08-25T00:18:20.161Z,27.57
2022-08-25T00:19:20.041Z,27.57
2022-08-25T00:20:20.059Z,27.57
2022-08-25T00:21:20.044Z,27.60
2022-08-25T00:22:20.045Z,27.55
2022-08-25T00:23:20.045Z,27.54
2022-08-25T00:24:20.047Z,27.60
2022-08-25T00:25:20.045Z,27.60
2022-08-25T00:26:20.048Z,27.59
2022-08-25T00:27:20.048Z,27.57
2022-08-25T00:28:20.051Z,27.57
2022-08-25T00:29:20.049Z,27.54
2022-08-25T00:30:20.052Z,27.55
2022-08-25T00:31:20.125Z,27.65
2022-08-25T00:32:20.051Z,27.59
2022-08-25T00:33:20.050Z,27.57
2022-08-25T00:34:20.053Z,27.55
2022-08-25T00:35:20.059Z,27.55
2022-08-25T00:36:20.051Z,27.60
2022-08-25T00:37:20.060Z,27.57
2022-08-25T00:38:20.053Z,27.57
2022-08-25T00:39:20.054Z,27.60
2022-08-25T00:40:20.144Z,27.55
2022-08-25T00:41:20.055Z,27.55
2022-08-25T00:42:20.056Z,27.57
2022-08-25T00:43:20.058Z,27.57
2022-08-25T00:44:20.070Z,27.59
2022-08-25T00:45:20.071Z,27.57
2022-08-25T00:46:20.106Z,27.57
2022-08-25T00:47:20.058Z,27.57
2022-08-25T00:48:20.061Z,27.51
2022-08-25T00:49:24.668Z,27.57
2022-08-25T00:50:20.060Z,27.59
2022-08-25T00:51:20.065Z,27.55
2022-08-25T00:52:20.061Z,27.54
2022-08-25T00:53:20.064Z,27.55
2022-08-25T00:54:20.061Z,27.57
2022-08-25T00:55:20.064Z,27.59
2022-08-25T00:56:21.663Z,27.54
2022-08-25T00:57:28.970Z,27.54
2022-08-25T00:58:20.064Z,27.55
2022-08-25T00:59:20.066Z,27.57
2022-08-25T01:00:20.066Z,27.51
2022-08-25T01:01:20.137Z,27.62
2022-08-25T01:02:20.111Z,27.49
2022-08-25T01:03:20.067Z,27.50
2022-08-25T01:04:20.067Z,27.57
2022-08-25T01:05:20.070Z,27.62
2022-08-25T01:06:20.069Z,27.55
2022-08-25T01:07:20.069Z,27.55
2022-08-25T01:08:20.076Z,27.55
2022-08-25T01:09:20.072Z,27.50
2022-08-25T01:10:20.070Z,27.59
2022-08-25T01:11:20.073Z,27.50
2022-08-25T01:12:20.071Z,27.62
2022-08-25T01:13:20.074Z,27.51
2022-08-25T01:14:20.073Z,27.51
2022-08-25T01:15:20.075Z,27.59
2022-08-25T01:16:20.125Z,27.51
2022-08-25T01:17:20.076Z,27.57
2022-08-25T01:18:20.074Z,27.51
2022-08-25T01:19:20.075Z,27.49
2022-08-25T01:20:20.076Z,27.47
2022-08-25T01:21:20.078Z,27.55
2022-08-25T01:22:20.079Z,27.54
2022-08-25T01:23:20.079Z,27.57
2022-08-25T01:24:20.078Z,27.55
2022-08-25T01:25:20.079Z,27.49
2022-08-25T01:26:20.080Z,27.62
2022-08-25T01:27:20.081Z,27.59
2022-08-25T01:28:20.080Z,27.47
2022-08-25T01:29:20.081Z,27.47
2022-08-25T01:30:20.087Z,27.55
2022-08-25T01:31:23.422Z,27.54
2022-08-25T01:32:20.081Z,27.50
2022-08-25T01:33:20.083Z,27.50
2022-08-25T01:34:20.085Z,27.47
2022-08-25T01:35:20.084Z,27.55
2022-08-25T01:36:20.085Z,27.50
2022-08-25T01:37:20.086Z,27.55
2022-08-25T01:38:20.084Z,27.55
2022-08-25T01:39:20.086Z,27.47
2022-08-25T01:40:20.153Z,27.46
2022-08-25T01:41:20.088Z,27.46
2022-08-25T01:42:20.087Z,27.46
2022-08-25T01:43:20.088Z,27.50
2022-08-25T01:44:20.087Z,27.50
2022-08-25T01:45:20.092Z,27.49
2022-08-25T01:46:20.140Z,27.55
2022-08-25T01:47:20.090Z,27.49
2022-08-25T01:48:20.091Z,27.40
2022-08-25T01:49:20.093Z,27.51
2022-08-25T01:50:20.091Z,27.50
2022-08-25T01:51:20.094Z,27.50
2022-08-25T01:52:20.093Z,27.50
2022-08-25T01:53:20.095Z,27.50
2022-08-25T01:54:20.093Z,27.40
2022-08-25T01:55:20.096Z,27.44
2022-08-25T01:56:20.095Z,27.49
2022-08-25T01:57:20.096Z,27.55
2022-08-25T01:58:20.094Z,27.46
2022-08-25T01:59:24.293Z,27.55
2022-08-25T02:00:20.097Z,27.50
2022-08-25T02:01:20.151Z,27.46
2022-08-25T02:02:20.120Z,27.46
2022-08-25T02:03:20.180Z,27.49
2022-08-25T02:04:20.099Z,27.49
2022-08-25T02:05:23.380Z,27.43
2022-08-25T02:06:20.100Z,27.50
2022-08-25T02:07:20.102Z,27.47
2022-08-25T02:08:20.101Z,27.54
2022-08-25T02:09:20.102Z,27.49
2022-08-25T02:10:20.116Z,27.47
2022-08-25T02:11:20.104Z,27.40
2022-08-25T02:12:20.106Z,27.49
2022-08-25T02:13:20.111Z,27.49
2022-08-25T02:14:20.104Z,27.46
2022-08-25T02:15:20.106Z,27.49
2022-08-25T02:16:20.141Z,27.49
2022-08-25T02:17:20.108Z,27.47
2022-08-25T02:18:20.106Z,27.51
2022-08-25T02:19:20.109Z,27.50
2022-08-25T02:20:20.107Z,27.50
2022-08-25T02:21:20.109Z,27.51
2022-08-25T02:22:20.109Z,27.44
2022-08-25T02:23:20.109Z,27.46
2022-08-25T02:24:20.111Z,27.41
2022-08-25T02:25:20.113Z,27.50
2022-08-25T02:26:20.111Z,27.51
2022-08-25T02:27:20.112Z,27.50
2022-08-25T02:28:20.111Z,27.44
2022-08-25T02:29:20.114Z,27.50
2022-08-25T02:30:20.130Z,27.44
2022-08-25T02:31:20.114Z,27.47
2022-08-25T02:32:20.116Z,27.50
2022-08-25T02:33:20.117Z,27.43
2022-08-25T02:34:20.115Z,27.40
2022-08-25T02:35:20.117Z,27.43
2022-08-25T02:36:20.117Z,27.39
2022-08-25T02:37:20.120Z,27.44
2022-08-25T02:38:20.117Z,27.40
2022-08-25T02:39:20.120Z,27.50
2022-08-25T02:40:20.190Z,27.44
2022-08-25T02:41:20.119Z,27.46
2022-08-25T02:42:20.119Z,27.43
2022-08-25T02:43:20.121Z,27.44
2022-08-25T02:44:20.120Z,27.40
2022-08-25T02:45:20.121Z,27.39
2022-08-25T02:46:20.245Z,27.50
2022-08-25T02:47:20.123Z,27.41
2022-08-25T02:48:20.123Z,27.49
2022-08-25T02:49:20.124Z,27.46
2022-08-25T02:50:20.122Z,27.39
2022-08-25T02:51:20.125Z,27.47
2022-08-25T02:52:20.126Z,27.36
2022-08-25T02:53:20.125Z,27.44
2022-08-25T02:54:20.124Z,27.41
2022-08-25T02:55:20.127Z,27.46
2022-08-25T02:56:20.127Z,27.43
2022-08-25T02:57:20.129Z,27.43
2022-08-25T02:58:20.128Z,27.41
2022-08-25T02:59:20.129Z,27.50
2022-08-25T03:00:20.129Z,27.49
2022-08-25T03:01:20.285Z,27.41
2022-08-25T03:02:20.130Z,27.46
2022-08-25T03:03:20.130Z,27.41
2022-08-25T03:04:20.131Z,27.43
2022-08-25T03:05:20.134Z,27.37
2022-08-25T03:06:20.131Z,27.47
2022-08-25T03:07:20.132Z,27.40
2022-08-25T03:08:20.133Z,27.41
2022-08-25T03:09:20.135Z,27.44
2022-08-25T03:10:20.134Z,27.43
2022-08-25T03:11:20.135Z,27.41
2022-08-25T03:12:20.135Z,27.39
2022-08-25T03:13:20.136Z,27.37
2022-08-25T03:14:20.135Z,27.40
2022-08-25T03:15:20.140Z,27.39
2022-08-25T03:16:20.304Z,27.41
2022-08-25T03:17:20.140Z,27.40
2022-08-25T03:18:20.137Z,27.47
2022-08-25T03:19:20.139Z,27.41
2022-08-25T03:20:20.139Z,27.41
2022-08-25T03:21:20.140Z,27.46
2022-08-25T03:22:20.140Z,27.32
2022-08-25T03:23:20.140Z,27.46
2022-08-25T03:24:20.140Z,27.40
2022-08-25T03:25:23.985Z,27.39
2022-08-25T03:26:20.142Z,27.43
2022-08-25T03:27:20.142Z,27.39
2022-08-25T03:28:20.142Z,27.41
2022-08-25T03:29:20.144Z,27.40
2022-08-25T03:30:20.150Z,27.41
2022-08-25T03:31:20.196Z,27.46
2022-08-25T03:32:20.144Z,27.40
2022-08-25T03:33:20.147Z,27.46
2022-08-25T03:34:20.144Z,27.47
2022-08-25T03:35:20.148Z,27.47
2022-08-25T03:36:20.147Z,27.49
2022-08-25T03:37:20.148Z,27.41
2022-08-25T03:38:20.148Z,27.39
2022-08-25T03:39:20.149Z,27.44
2022-08-25T03:40:20.167Z,27.43
2022-08-25T03:41:20.150Z,27.43
2022-08-25T03:42:20.153Z,27.44
2022-08-25T03:43:20.150Z,27.41
2022-08-25T03:44:20.151Z,27.50
2022-08-25T03:45:20.151Z,27.44
2022-08-25T03:46:20.214Z,27.44
2022-08-25T03:47:20.154Z,27.46
2022-08-25T03:48:20.153Z,27.41
2022-08-25T03:49:20.156Z,27.32
2022-08-25T03:50:20.154Z,27.44
2022-08-25T03:51:20.156Z,27.41
2022-08-25T03:52:20.154Z,27.44
2022-08-25T03:53:20.158Z,27.39
2022-08-25T03:54:20.155Z,27.43
2022-08-25T03:55:20.157Z,27.41
2022-08-25T03:56:20.157Z,27.39
2022-08-25T03:57:20.159Z,27.47
2022-08-25T03:58:20.157Z,27.49
2022-08-25T03:59:20.159Z,27.39
2022-08-25T04:00:20.160Z,27.47
2022-08-25T04:01:20.296Z,27.41
2022-08-25T04:02:20.251Z,27.46
2022-08-25T04:03:20.160Z,27.46
2022-08-25T04:04:20.164Z,27.39
2022-08-25T04:05:20.164Z,27.46
2022-08-25T04:06:20.160Z,27.43
2022-08-25T04:07:20.162Z,27.37
2022-08-25T04:08:20.164Z,27.39
2022-08-25T04:09:20.164Z,27.40
2022-08-25T04:10:20.164Z,27.40
2022-08-25T04:11:20.165Z,27.47
2022-08-25T04:12:20.167Z,27.47
2022-08-25T04:13:20.166Z,27.43
2022-08-25T04:14:20.167Z,27.37
2022-08-25T04:15:20.167Z,27.46
2022-08-25T04:16:20.240Z,27.44
2022-08-25T04:17:20.169Z,27.44
2022-08-25T04:18:20.168Z,27.39
2022-08-25T04:19:20.170Z,27.37
2022-08-25T04:20:20.169Z,27.46
2022-08-25T04:21:20.172Z,27.49
2022-08-25T04:22:20.173Z,27.50
2022-08-25T04:23:20.172Z,27.37
2022-08-25T04:24:20.171Z,27.41
2022-08-25T04:25:20.173Z,27.43
2022-08-25T04:26:20.170Z,27.49
2022-08-25T04:27:20.173Z,27.47
2022-08-25T04:28:20.173Z,27.47
2022-08-25T04:29:20.174Z,27.41
2022-08-25T04:30:20.174Z,27.43
2022-08-25T04:31:20.228Z,27.41
2022-08-25T04:32:20.175Z,27.32
2022-08-25T04:33:20.177Z,27.46
2022-08-25T04:34:29.876Z,27.41
2022-08-25T04:35:20.177Z,27.37
2022-08-25T04:36:20.176Z,27.41
2022-08-25T04:37:20.179Z,27.40
2022-08-25T04:38:20.177Z,27.44
2022-08-25T04:39:20.179Z,27.47
2022-08-25T04:40:20.246Z,27.41
2022-08-25T04:41:20.181Z,27.41
2022-08-25T04:42:20.180Z,27.50
2022-08-25T04:43:20.181Z,27.41
2022-08-25T04:44:20.182Z,27.50
2022-08-25T04:45:20.182Z,27.41
2022-08-25T04:46:20.806Z,27.36
2022-08-25T04:47:20.182Z,27.47
2022-08-25T04:48:20.184Z,27.43
2022-08-25T04:49:20.185Z,27.49
2022-08-25T04:50:20.185Z,27.41
2022-08-25T04:51:20.184Z,27.39
2022-08-25T04:52:20.186Z,27.41
2022-08-25T04:53:20.186Z,27.43
2022-08-25T04:54:20.186Z,27.40
2022-08-25T04:55:20.188Z,27.43
2022-08-25T04:56:20.187Z,27.47
2022-08-25T04:57:20.187Z,27.40
2022-08-25T04:58:20.189Z,27.40
2022-08-25T04:59:20.187Z,27.40
2022-08-25T05:00:20.189Z,27.43
2022-08-25T05:01:20.247Z,27.43
2022-08-25T05:02:20.191Z,27.43
2022-08-25T05:03:20.190Z,27.44
2022-08-25T05:04:27.897Z,27.50
2022-08-25T05:05:20.191Z,27.40
2022-08-25T05:06:20.193Z,27.46
2022-08-25T05:07:20.193Z,27.41
2022-08-25T05:08:20.194Z,27.40
2022-08-25T05:09:20.193Z,27.47
2022-08-25T05:10:20.196Z,27.41
2022-08-25T05:11:20.193Z,27.41
2022-08-25T05:12:20.196Z,27.32
2022-08-25T05:13:20.197Z,27.40
2022-08-25T05:14:20.198Z,27.39
2022-08-25T05:15:20.196Z,27.41
2022-08-25T05:16:20.293Z,27.49
2022-08-25T05:17:20.197Z,27.41
2022-08-25T05:18:20.198Z,27.41
2022-08-25T05:19:20.199Z,27.41
2022-08-25T05:20:20.199Z,27.41
2022-08-25T05:21:20.201Z,27.39
2022-08-25T05:22:20.201Z,27.41
2022-08-25T05:23:20.201Z,27.41
2022-08-25T05:24:20.204Z,27.39
2022-08-25T05:25:20.201Z,27.40
2022-08-25T05:26:20.595Z,27.43
2022-08-25T05:27:20.203Z,27.46
2022-08-25T05:28:20.204Z,27.40
2022-08-25T05:29:20.204Z,27.39
2022-08-25T05:30:20.205Z,27.43
2022-08-25T05:31:20.257Z,27.43
2022-08-25T05:32:20.207Z,27.39
2022-08-25T05:33:20.209Z,27.41
2022-08-25T05:34:20.206Z,27.41
2022-08-25T05:35:20.214Z,27.49
2022-08-25T05:36:20.208Z,27.37
2022-08-25T05:37:20.208Z,27.41
2022-08-25T05:38:20.211Z,27.36
2022-08-25T05:39:20.210Z,27.40
2022-08-25T05:40:20.301Z,27.41
2022-08-25T05:41:20.211Z,27.47
2022-08-25T05:42:20.211Z,27.44
2022-08-25T05:43:20.211Z,27.47
2022-08-25T05:44:21.332Z,27.37
2022-08-25T05:45:20.665Z,27.40
2022-08-25T05:46:20.276Z,27.44
2022-08-25T05:47:20.213Z,27.40
2022-08-25T05:48:20.214Z,27.41
2022-08-25T05:49:20.213Z,27.41
2022-08-25T05:50:20.215Z,27.46
2022-08-25T05:51:20.215Z,27.43
2022-08-25T05:52:20.396Z,27.40
2022-08-25T05:53:20.216Z,27.37
2022-08-25T05:54:20.217Z,27.47
2022-08-25T05:55:20.220Z,27.41
2022-08-25T05:56:20.219Z,27.51
2022-08-25T05:57:20.219Z,27.46
2022-08-25T05:58:20.219Z,27.41
2022-08-25T05:59:20.220Z,27.46
2022-08-25T06:00:20.221Z,27.34
2022-08-25T06:01:20.329Z,27.39
2022-08-25T06:02:20.223Z,27.37
2022-08-25T06:03:20.282Z,27.39
2022-08-25T06:04:20.223Z,27.41
2022-08-25T06:05:20.222Z,27.41
2022-08-25T06:06:20.223Z,27.44
2022-08-25T06:07:20.225Z,27.41
2022-08-25T06:08:20.226Z,27.41
2022-08-25T06:09:20.225Z,27.50
2022-08-25T06:10:20.226Z,27.54
2022-08-25T06:11:20.225Z,27.47
2022-08-25T06:12:20.230Z,27.37
2022-08-25T06:13:28.036Z,27.36
2022-08-25T06:14:20.228Z,27.51
2022-08-25T06:15:20.228Z,27.40
2022-08-25T06:16:20.305Z,27.37
2022-08-25T06:17:20.228Z,27.39
2022-08-25T06:18:20.231Z,27.40
2022-08-25T06:19:20.230Z,27.43
2022-08-25T06:20:20.230Z,27.46
2022-08-25T06:21:20.233Z,27.43
2022-08-25T06:22:20.238Z,27.41
2022-08-25T06:23:20.231Z,27.40
2022-08-25T06:24:20.234Z,27.43
2022-08-25T06:25:20.234Z,27.47
2022-08-25T06:26:21.072Z,27.32
2022-08-25T06:27:20.237Z,27.51
2022-08-25T06:28:20.238Z,27.39
2022-08-25T06:29:20.235Z,27.50
2022-08-25T06:30:24.368Z,27.40
2022-08-25T06:31:20.275Z,27.40
2022-08-25T06:32:20.239Z,27.43
2022-08-25T06:33:20.239Z,27.41
2022-08-25T06:34:20.239Z,27.50
2022-08-25T06:35:20.238Z,27.36
2022-08-25T06:36:20.242Z,27.41
2022-08-25T06:37:24.612Z,27.43
2022-08-25T06:38:20.241Z,27.47
2022-08-25T06:39:20.241Z,27.47
2022-08-25T06:40:20.291Z,27.47
2022-08-25T06:41:20.242Z,27.40
2022-08-25T06:42:20.242Z,27.51
2022-08-25T06:43:20.242Z,27.46
2022-08-25T06:44:20.244Z,27.43
2022-08-25T06:45:20.244Z,27.40
2022-08-25T06:46:20.321Z,27.41
2022-08-25T06:47:20.312Z,27.43
2022-08-25T06:48:20.246Z,27.41
2022-08-25T06:49:20.247Z,27.40
2022-08-25T06:50:20.248Z,27.43
2022-08-25T06:51:20.247Z,27.43
2022-08-25T06:52:20.249Z,27.37
2022-08-25T06:53:20.250Z,27.41
2022-08-25T06:54:20.250Z,27.36
2022-08-25T06:55:20.249Z,27.43
2022-08-25T06:56:20.250Z,27.46
2022-08-25T06:57:20.251Z,27.47
2022-08-25T06:58:20.253Z,27.43
2022-08-25T06:59:20.251Z,27.41
2022-08-25T07:00:20.257Z,27.40
2022-08-25T07:01:20.526Z,27.44
2022-08-25T07:02:22.032Z,27.36
2022-08-25T07:03:26.697Z,27.40
2022-08-25T07:04:20.255Z,27.46
2022-08-25T07:05:27.365Z,27.46
2022-08-25T07:06:20.256Z,27.54
2022-08-25T07:07:20.255Z,27.39
2022-08-25T07:08:20.259Z,27.43
2022-08-25T07:09:20.257Z,27.50
2022-08-25T07:10:20.261Z,27.43
2022-08-25T07:11:20.258Z,27.44
2022-08-25T07:12:20.258Z,27.44
2022-08-25T07:13:20.258Z,27.46
2022-08-25T07:14:20.259Z,27.46
2022-08-25T07:15:20.982Z,27.44
2022-08-25T07:16:20.379Z,27.40
2022-08-25T07:17:20.261Z,27.43
2022-08-25T07:18:20.263Z,27.50
2022-08-25T07:19:20.262Z,27.46
2022-08-25T07:20:20.310Z,27.50
2022-08-25T07:21:24.789Z,27.43
2022-08-25T07:22:20.264Z,27.40
2022-08-25T07:23:20.263Z,27.41
2022-08-25T07:24:20.265Z,27.41
2022-08-25T07:25:20.265Z,27.50
2022-08-25T07:26:37.164Z,27.39
2022-08-25T07:27:20.265Z,27.37
2022-08-25T07:28:20.267Z,27.47
2022-08-25T07:29:20.266Z,27.40
2022-08-25T07:30:20.273Z,27.34
2022-08-25T07:31:20.298Z,27.37
2022-08-25T07:32:20.270Z,27.41
2022-08-25T07:33:20.272Z,27.51
2022-08-25T07:34:20.270Z,27.41
2022-08-25T07:35:20.269Z,27.44
2022-08-25T07:36:20.271Z,27.39
2022-08-25T07:37:38.367Z,27.37
2022-08-25T07:38:20.897Z,27.43
2022-08-25T07:39:22.173Z,27.39
2022-08-25T07:40:20.329Z,27.43
2022-08-25T07:41:20.273Z,27.36
2022-08-25T07:42:20.274Z,27.46
2022-08-25T07:43:20.273Z,27.46
2022-08-25T07:44:20.277Z,27.40
2022-08-25T07:45:20.856Z,27.43
2022-08-25T07:46:20.332Z,27.43
2022-08-25T07:47:20.276Z,27.44
2022-08-25T07:48:20.281Z,27.41
2022-08-25T07:49:23.278Z,27.43
2022-08-25T07:50:20.277Z,27.40
2022-08-25T07:51:20.350Z,27.55
2022-08-25T07:52:20.280Z,27.50
2022-08-25T07:53:20.279Z,27.46
2022-08-25T07:54:20.280Z,27.41
2022-08-25T07:55:20.280Z,27.41
2022-08-25T07:56:20.285Z,27.43
2022-08-25T07:57:20.283Z,27.44
2022-08-25T07:58:20.281Z,27.46
2022-08-25T07:59:20.282Z,27.39
2022-08-25T08:00:20.283Z,27.44
2022-08-25T08:01:20.359Z,27.43
2022-08-25T08:02:20.334Z,27.46
2022-08-25T08:03:42.305Z,27.39
2022-08-25T08:04:20.285Z,27.36
2022-08-25T08:05:20.285Z,27.43
2022-08-25T08:06:20.286Z,27.46
2022-08-25T08:07:20.298Z,27.39
2022-08-25T08:08:20.288Z,27.41
2022-08-25T08:09:20.287Z,27.40
2022-08-25T08:11:20.287Z,27.49
2022-08-25T08:12:20.290Z,27.43
2022-08-25T08:13:20.456Z,27.40
2022-08-25T08:14:20.291Z,27.44
2022-08-25T08:15:20.290Z,27.41
2022-08-25T08:16:20.368Z,27.40
2022-08-25T08:17:20.290Z,27.39
2022-08-25T08:18:20.292Z,27.41
2022-08-25T08:19:23.030Z,27.41
2022-08-25T08:20:23.344Z,27.46
2022-08-25T08:21:20.293Z,27.37
2022-08-25T08:22:20.293Z,27.44
2022-08-25T08:23:20.292Z,27.41
2022-08-25T08:24:40.853Z,27.41
2022-08-25T08:25:21.603Z,27.41
2022-08-25T08:26:20.596Z,27.49
2022-08-25T08:27:20.296Z,27.43
2022-08-25T08:28:20.297Z,27.41
2022-08-25T08:29:20.295Z,27.49
2022-08-25T08:30:20.297Z,27.40
2022-08-25T08:31:20.345Z,27.43
2022-08-25T08:32:20.298Z,27.39
2022-08-25T08:33:20.316Z,27.39
2022-08-25T08:34:20.300Z,27.40
2022-08-25T08:35:20.299Z,27.41
2022-08-25T08:36:20.301Z,27.37
2022-08-25T08:37:22.965Z,27.41
2022-08-25T08:38:22.154Z,27.44
2022-08-25T08:39:20.300Z,27.40
2022-08-25T08:40:20.461Z,27.32
2022-08-25T08:41:22.908Z,27.39
2022-08-25T08:42:20.767Z,27.46
2022-08-25T08:43:20.301Z,27.41
2022-08-25T08:44:20.304Z,27.41
2022-08-25T08:45:20.304Z,27.44
2022-08-25T08:46:20.374Z,27.47
2022-08-25T08:47:20.462Z,27.43
2022-08-25T08:48:20.306Z,27.49
2022-08-25T08:49:20.305Z,27.46
2022-08-25T08:50:24.901Z,27.37
2022-08-25T08:51:20.308Z,27.41
2022-08-25T08:52:20.307Z,27.37
2022-08-25T08:53:20.305Z,27.41
2022-08-25T08:54:20.308Z,27.41
2022-08-25T08:55:20.308Z,27.43
2022-08-25T08:56:20.308Z,27.41
2022-08-25T08:57:20.308Z,27.46
2022-08-25T08:58:20.309Z,27.44
2022-08-25T08:59:20.308Z,27.41
2022-08-25T09:00:20.310Z,27.41
2022-08-25T09:01:20.379Z,27.46
2022-08-25T09:02:38.509Z,27.41
2022-08-25T09:03:20.335Z,27.40
2022-08-25T09:04:20.311Z,27.41
2022-08-25T09:05:20.311Z,27.46
2022-08-25T09:06:20.314Z,27.46
2022-08-25T09:07:20.802Z,27.41
2022-08-25T09:08:20.708Z,27.40
2022-08-25T09:09:20.314Z,27.44
2022-08-25T09:10:20.312Z,27.34
2022-08-25T09:11:20.316Z,27.32
2022-08-25T09:12:20.318Z,27.40
2022-08-25T09:13:20.321Z,27.36
2022-08-25T09:14:20.313Z,27.39
2022-08-25T09:15:20.316Z,27.37
2022-08-25T09:16:23.348Z,27.32
2022-08-25T09:17:20.318Z,27.32
2022-08-25T09:18:20.317Z,27.27
2022-08-25T09:19:23.568Z,27.36
2022-08-25T09:20:20.317Z,27.22
2022-08-25T09:21:20.319Z,27.28
2022-08-25T09:22:33.462Z,27.29
2022-08-25T09:23:20.466Z,27.19
2022-08-25T09:24:20.320Z,27.32
2022-08-25T09:25:29.386Z,27.19
2022-08-25T09:26:20.320Z,27.27
2022-08-25T09:27:20.323Z,27.25
2022-08-25T09:28:20.320Z,27.24
2022-08-25T09:29:20.330Z,27.18
2022-08-25T09:30:20.365Z,27.28
2022-08-25T09:31:20.396Z,27.24
2022-08-25T09:32:24.035Z,27.25
2022-08-25T09:33:21.190Z,27.24
2022-08-25T09:34:20.324Z,27.22
2022-08-25T09:35:20.325Z,27.25
2022-08-25T09:36:20.324Z,27.29
2022-08-25T09:37:20.340Z,27.25
2022-08-25T09:38:20.326Z,27.24
2022-08-25T09:39:20.325Z,27.22
2022-08-25T09:40:20.378Z,27.28
2022-08-25T09:41:20.326Z,27.21
2022-08-25T09:42:23.837Z,27.19
2022-08-25T09:43:20.327Z,27.25
2022-08-25T09:44:20.328Z,27.24
2022-08-25T09:45:20.329Z,27.27
2022-08-25T09:46:20.787Z,27.27
2022-08-25T09:47:20.331Z,27.29
2022-08-25T09:48:20.329Z,27.27
2022-08-25T09:49:20.331Z,27.27
2022-08-25T09:50:20.330Z,27.31
2022-08-25T09:51:20.331Z,27.36
2022-08-25T09:52:20.330Z,27.41
2022-08-25T09:53:21.733Z,27.40
2022-08-25T09:54:20.331Z,27.29
2022-08-25T09:55:20.333Z,27.39
2022-08-25T09:56:20.333Z,27.39
2022-08-25T09:57:20.333Z,27.37
2022-08-25T09:58:20.334Z,27.28
2022-08-25T09:59:20.337Z,27.34
2022-08-25T10:00:20.335Z,27.36
2022-08-25T10:01:20.710Z,27.36
2022-08-25T10:02:20.333Z,27.32
2022-08-25T10:03:22.775Z,27.32
2022-08-25T10:04:20.910Z,27.34
2022-08-25T10:05:20.385Z,27.41
2022-08-25T10:06:20.338Z,27.32
2022-08-25T10:07:20.338Z,27.32
2022-08-25T10:08:20.338Z,27.39
2022-08-25T10:09:20.339Z,27.32
2022-08-25T10:10:20.338Z,27.44
2022-08-25T10:11:20.340Z,27.41
2022-08-25T10:12:21.042Z,27.40
2022-08-25T10:13:22.969Z,27.41
2022-08-25T10:14:20.339Z,27.41
2022-08-25T10:15:29.112Z,27.39
2022-08-25T10:16:24.605Z,27.49
2022-08-25T10:17:20.342Z,27.46
2022-08-25T10:18:20.341Z,27.43
2022-08-25T10:19:20.343Z,27.49
2022-08-25T10:20:20.353Z,27.44
2022-08-25T10:21:20.345Z,27.40
2022-08-25T10:22:20.345Z,27.40
2022-08-25T10:23:20.344Z,27.41
2022-08-25T10:24:20.345Z,27.50
2022-08-25T10:25:20.347Z,27.40
2022-08-25T10:26:20.345Z,27.47
2022-08-25T10:27:20.346Z,27.37
2022-08-25T10:28:20.349Z,27.40
2022-08-25T10:29:20.349Z,27.46
2022-08-25T10:30:20.347Z,27.44
2022-08-25T10:31:20.386Z,27.37
2022-08-25T10:32:20.359Z,27.49
2022-08-25T10:33:20.353Z,27.43
2022-08-25T10:34:20.349Z,27.37
2022-08-25T10:35:20.352Z,27.36
2022-08-25T10:36:21.358Z,27.41
2022-08-25T10:37:20.352Z,27.41
2022-08-25T10:38:21.741Z,27.41
2022-08-25T10:39:33.838Z,27.44
2022-08-25T10:40:20.375Z,27.41
2022-08-25T10:41:20.354Z,27.50
2022-08-25T10:42:20.353Z,27.44
2022-08-25T10:43:20.355Z,27.49
2022-08-25T10:44:20.357Z,27.40
2022-08-25T10:45:21.901Z,27.40
2022-08-25T10:46:20.411Z,27.47
2022-08-25T10:47:20.358Z,27.49
2022-08-25T10:48:20.358Z,27.49
2022-08-25T10:49:20.360Z,27.44
2022-08-25T10:50:20.357Z,27.47
2022-08-25T10:51:23.696Z,27.46
2022-08-25T10:52:20.361Z,27.51
2022-08-25T10:53:20.370Z,27.49
2022-08-25T10:54:20.360Z,27.46
2022-08-25T10:55:20.362Z,27.47
2022-08-25T10:56:20.361Z,27.44
2022-08-25T10:57:20.364Z,27.43
2022-08-25T10:58:20.362Z,27.43
2022-08-25T10:59:20.363Z,27.44
2022-08-25T11:00:20.363Z,27.49
2022-08-25T11:01:20.448Z,27.49
2022-08-25T11:02:20.364Z,27.49
2022-08-25T11:03:20.366Z,27.51
2022-08-25T11:04:20.367Z,27.49
2022-08-25T11:05:24.705Z,27.50
2022-08-25T11:06:20.365Z,27.50
2022-08-25T11:07:20.368Z,27.51
2022-08-25T11:08:20.368Z,27.50
2022-08-25T11:09:20.370Z,27.57
2022-08-25T11:10:20.368Z,27.55
2022-08-25T11:11:20.370Z,27.50
2022-08-25T11:12:20.379Z,27.47
2022-08-25T11:13:20.373Z,27.60
2022-08-25T11:14:20.370Z,27.54
2022-08-25T11:15:20.373Z,27.49
2022-08-25T11:16:20.379Z,27.57
2022-08-25T11:17:20.401Z,27.62
2022-08-25T11:18:20.373Z,27.57
2022-08-25T11:19:20.379Z,27.57
2022-08-25T11:20:26.786Z,27.51
2022-08-25T11:21:20.377Z,27.54
2022-08-25T11:22:20.375Z,27.65
2022-08-25T11:23:20.379Z,27.62
2022-08-25T11:24:20.377Z,27.74
2022-08-25T11:25:21.549Z,27.74
2022-08-25T11:26:20.377Z,27.63
2022-08-25T11:27:21.593Z,27.63
2022-08-25T11:28:20.379Z,27.69
2022-08-25T11:29:20.384Z,27.74
2022-08-25T11:30:20.380Z,27.70
2022-08-25T11:31:20.381Z,27.75
2022-08-25T11:32:20.381Z,27.82
2022-08-25T11:33:20.384Z,27.74
2022-08-25T11:34:20.382Z,27.72
2022-08-25T11:35:20.384Z,27.75
2022-08-25T11:36:20.384Z,27.81
2022-08-25T11:37:20.385Z,27.82
2022-08-25T11:38:20.858Z,27.81
2022-08-25T11:39:20.387Z,27.82
2022-08-25T11:40:20.419Z,27.81
2022-08-25T11:41:20.388Z,27.87
2022-08-25T11:42:20.389Z,27.88
2022-08-25T11:43:20.391Z,27.82
2022-08-25T11:44:20.388Z,27.79
2022-08-25T11:45:20.392Z,27.90
2022-08-25T11:46:20.451Z,27.84
2022-08-25T11:47:21.564Z,27.90
2022-08-25T11:48:20.394Z,27.94
2022-08-25T11:49:21.833Z,27.92
2022-08-25T11:50:20.398Z,27.96
2022-08-25T11:51:20.396Z,27.88
2022-08-25T11:52:20.395Z,27.88
2022-08-25T11:53:26.545Z,27.94
2022-08-25T11:54:20.396Z,27.87
2022-08-25T11:55:23.180Z,27.93
2022-08-25T11:56:20.399Z,28.00
2022-08-25T11:57:20.400Z,28.04
2022-08-25T11:58:20.398Z,27.93
2022-08-25T11:59:20.400Z,27.96
2022-08-25T12:00:20.401Z,27.97
2022-08-25T12:01:20.403Z,28.04
2022-08-25T12:02:20.402Z,28.11
2022-08-25T12:03:20.403Z,28.09
2022-08-25T12:04:20.428Z,28.06
2022-08-25T12:05:20.492Z,28.11
2022-08-25T12:06:20.405Z,28.18
2022-08-25T12:07:20.406Z,28.15
2022-08-25T12:08:20.406Z,28.19
2022-08-25T12:09:20.409Z,28.15
2022-08-25T12:10:20.409Z,28.22
2022-08-25T12:11:20.410Z,28.19
2022-08-25T12:12:20.411Z,28.15
2022-08-25T12:13:20.414Z,28.12
2022-08-25T12:14:20.418Z,28.19
2022-08-25T12:15:20.422Z,28.15
2022-08-25T12:16:20.436Z,28.15
2022-08-25T12:17:20.416Z,28.17
2022-08-25T12:18:20.415Z,28.24
2022-08-25T12:19:20.417Z,28.30
2022-08-25T12:20:20.418Z,28.18
2022-08-25T12:21:20.419Z,28.19
2022-08-25T12:22:20.419Z,28.24
2022-08-25T12:23:20.422Z,28.22
2022-08-25T12:24:20.420Z,28.27
2022-08-25T12:25:20.424Z,28.18
2022-08-25T12:26:20.422Z,28.30
2022-08-25T12:27:20.426Z,28.31
2022-08-25T12:28:20.426Z,28.25
2022-08-25T12:29:21.578Z,28.29
2022-08-25T12:30:21.016Z,28.22
2022-08-25T12:31:20.513Z,28.29
2022-08-25T12:32:20.429Z,28.33
2022-08-25T12:33:20.431Z,28.31
2022-08-25T12:34:20.430Z,28.29
2022-08-25T12:35:20.434Z,28.30
2022-08-25T12:36:20.434Z,28.31
2022-08-25T12:37:20.447Z,28.30
2022-08-25T12:38:20.433Z,28.31
2022-08-25T12:39:24.497Z,28.31
2022-08-25T12:40:20.486Z,28.33
2022-08-25T12:41:20.438Z,28.29
2022-08-25T12:42:23.283Z,28.25
2022-08-25T12:43:20.442Z,28.34
2022-08-25T12:44:20.441Z,28.31
2022-08-25T12:45:20.449Z,28.31
2022-08-25T12:46:20.577Z,28.37
2022-08-25T12:47:23.496Z,28.31
2022-08-25T12:48:20.445Z,28.25
2022-08-25T12:49:21.008Z,28.29
2022-08-25T12:50:20.447Z,28.33
2022-08-25T12:51:20.448Z,28.30
2022-08-25T12:52:20.450Z,28.37
2022-08-25T12:53:20.451Z,28.37